createdAt,value
2018-02-27T00:02:14.065Z,102803.95
2018-02-27T00:04:40.259Z,102803.97
2018-02-27T00:07:06.473Z,102803.95
2018-02-27T00:09:32.664Z,102801.35
2018-02-27T00:11:58.868Z,102800.91
2018-02-27T00:14:25.096Z,102803.92
2018-02-27T00:16:51.676Z,102803.06
2018-02-27T00:19:17.901Z,102800.91
2018-02-27T00:21:44.115Z,102801.35
2018-02-27T00:24:10.336Z,102807.04
2018-02-27T00:26:36.543Z,102805.75
2018-02-27T00:29:02.766Z,102806.70
2018-02-27T00:31:32.860Z,102809.76
2018-02-27T00:33:59.045Z,102804.55
2018-02-27T00:36:25.226Z,102806.75
2018-02-27T00:38:51.434Z,102806.22
2018-02-27T00:41:17.612Z,102802.32
2018-02-27T00:43:43.805Z,102799.76
2018-02-27T00:46:09.983Z,102804.20
2018-02-27T00:48:36.211Z,102797.20
2018-02-27T00:51:02.414Z,102802.87
2018-02-27T00:53:28.567Z,102805.44
2018-02-27T00:55:54.804Z,102803.16
2018-02-27T00:58:20.976Z,102804.44
2018-02-27T01:00:47.153Z,102802.25
2018-02-27T01:03:13.408Z,102807.14
2018-02-27T01:05:39.572Z,102809.77
2018-02-27T01:08:05.925Z,102808.03
2018-02-27T01:10:32.166Z,102804.47
2018-02-27T01:12:58.348Z,102803.58
2018-02-27T01:15:24.531Z,102803.11
2018-02-27T01:17:50.778Z,102803.61
2018-02-27T01:20:17.205Z,102803.55
2018-02-27T01:22:43.625Z,102798.73
2018-02-27T01:25:09.836Z,102797.91
2018-02-27T01:27:36.008Z,102795.18
2018-02-27T01:30:02.255Z,102796.96
2018-02-27T01:32:28.660Z,102797.48
2018-02-27T01:34:54.822Z,102800.93
2018-02-27T01:37:21.256Z,102794.80
2018-02-27T01:39:47.428Z,102800.05
2018-02-27T01:42:13.819Z,102798.30
2018-02-27T01:44:40.006Z,102796.52
2018-02-27T01:47:06.219Z,102796.52
2018-02-27T01:49:32.423Z,102795.18
2018-02-27T01:51:58.584Z,102790.34
2018-02-27T01:54:25.098Z,102789.02
2018-02-27T01:56:51.504Z,102794.19
2018-02-27T01:59:17.714Z,102788.56
2018-02-27T02:01:43.934Z,102784.17
2018-02-27T02:04:10.091Z,102787.20
2018-02-27T02:06:36.311Z,102781.97
2018-02-27T02:09:02.790Z,102780.73
2018-02-27T02:11:29.036Z,102784.27
2018-02-27T02:13:55.233Z,102779.42
2018-02-27T02:16:21.435Z,102779.90
2018-02-27T02:18:47.996Z,102776.02
2018-02-27T02:21:14.168Z,102776.44
2018-02-27T02:23:40.328Z,102775.11
2018-02-27T02:26:06.583Z,102768.09
2018-02-27T02:28:32.770Z,102771.11
2018-02-27T02:30:58.971Z,102762.84
2018-02-27T02:33:25.173Z,102764.56
2018-02-27T02:35:51.699Z,102763.66
2018-02-27T02:38:17.946Z,102753.62
2018-02-27T02:40:44.127Z,102758.02
2018-02-27T02:43:10.375Z,102762.81
2018-02-27T02:45:36.552Z,102751.38
2018-02-27T02:48:02.725Z,102746.19
2018-02-27T02:50:29.267Z,102744.46
2018-02-27T02:52:55.467Z,102751.10
2018-02-27T02:55:21.686Z,102745.02
2018-02-27T02:57:47.872Z,102749.83
2018-02-27T03:00:14.405Z,102745.94
2018-02-27T03:02:40.719Z,102737.19
2018-02-27T03:05:06.910Z,102738.52
2018-02-27T03:07:33.135Z,102734.22
2018-02-27T03:09:59.303Z,102735.14
2018-02-27T03:12:27.447Z,102726.31
2018-02-27T03:14:53.686Z,102728.94
2018-02-27T03:17:19.872Z,102728.91
2018-02-27T03:19:46.266Z,102724.50
2018-02-27T03:22:12.451Z,102721.86
2018-02-27T03:24:38.877Z,102717.44
2018-02-27T03:27:05.197Z,102711.31
2018-02-27T03:29:31.368Z,102705.23
2018-02-27T03:31:57.585Z,102697.36
2018-02-27T03:34:23.774Z,102700.00
2018-02-27T03:36:49.939Z,102694.34
2018-02-27T03:39:16.136Z,102689.97
2018-02-27T03:41:42.368Z,102692.16
2018-02-27T03:44:08.768Z,102681.23
2018-02-27T03:46:34.936Z,102681.67
2018-02-27T03:49:01.120Z,102682.48
2018-02-27T03:51:27.286Z,102680.33
2018-02-27T03:53:53.531Z,102682.57
2018-02-27T03:56:19.706Z,102675.60
2018-02-27T03:58:45.886Z,102670.90
2018-02-27T04:01:12.081Z,102668.72
2018-02-27T04:03:38.313Z,102672.20
2018-02-27T04:06:04.493Z,102670.01
2018-02-27T04:08:30.665Z,102667.44
2018-02-27T04:10:56.867Z,102674.03
2018-02-27T04:13:23.075Z,102673.21
2018-02-27T04:15:49.302Z,102674.09
2018-02-27T04:18:15.479Z,102670.58
2018-02-27T04:20:41.644Z,102671.03
2018-02-27T04:23:07.929Z,102667.54
2018-02-27T04:25:34.161Z,102665.33
2018-02-27T04:28:00.380Z,102662.19
2018-02-27T04:30:26.568Z,102663.41
2018-02-27T04:32:52.749Z,102658.09
2018-02-27T04:35:18.992Z,102656.34
2018-02-27T04:37:45.170Z,102653.25
2018-02-27T04:40:11.334Z,102653.20
2018-02-27T04:42:37.548Z,102654.56
2018-02-27T04:45:03.753Z,102654.56
2018-02-27T04:47:29.975Z,102653.19
2018-02-27T04:49:56.147Z,102649.70
2018-02-27T04:52:22.355Z,102647.52
2018-02-27T04:54:48.516Z,102642.23
2018-02-27T04:57:14.731Z,102641.34
2018-02-27T04:59:40.914Z,102638.27
2018-02-27T05:02:07.102Z,102641.32
2018-02-27T05:04:33.296Z,102640.05
2018-02-27T05:06:59.484Z,102639.23
2018-02-27T05:09:25.994Z,102632.25
2018-02-27T05:11:52.197Z,102641.41
2018-02-27T05:14:18.394Z,102641.37
2018-02-27T05:16:44.604Z,102635.66
2018-02-27T05:19:10.792Z,102641.33
2018-02-27T05:21:37.015Z,102631.75
2018-02-27T05:24:03.214Z,102633.42
2018-02-27T05:26:29.659Z,102630.82
2018-02-27T05:28:56.251Z,102631.19
2018-02-27T05:31:22.559Z,102625.17
2018-02-27T05:33:49.016Z,102629.16
2018-02-27T05:36:15.191Z,102626.59
2018-02-27T05:38:41.368Z,102618.32
2018-02-27T05:41:07.529Z,102628.41
2018-02-27T05:43:33.742Z,102624.88
2018-02-27T05:45:59.920Z,102623.95
2018-02-27T05:48:26.138Z,102619.98
2018-02-27T05:50:52.324Z,102616.95
2018-02-27T05:53:18.503Z,102612.98
2018-02-27T05:55:44.700Z,102623.41
2018-02-27T05:58:10.890Z,102619.00
2018-02-27T06:00:37.118Z,102618.98
2018-02-27T06:03:03.292Z,102626.35
2018-02-27T06:05:29.479Z,102624.19
2018-02-27T06:07:55.687Z,102618.09
2018-02-27T06:10:22.178Z,102617.62
2018-02-27T06:12:48.619Z,102622.85
2018-02-27T06:15:14.791Z,102619.77
2018-02-27T06:17:41.000Z,102618.09
2018-02-27T06:20:07.477Z,102622.56
2018-02-27T06:22:33.696Z,102621.20
2018-02-27T06:24:59.868Z,102620.28
2018-02-27T06:27:26.165Z,102616.31
2018-02-27T06:29:52.345Z,102618.97
2018-02-27T06:32:18.549Z,102615.17
2018-02-27T06:34:44.764Z,102621.34
2018-02-27T06:37:10.954Z,102614.81
2018-02-27T06:39:37.144Z,102612.27
2018-02-27T06:42:03.383Z,102605.25
2018-02-27T06:44:29.565Z,102616.19
2018-02-27T06:46:55.757Z,102610.52
2018-02-27T06:49:21.956Z,102618.84
2018-02-27T06:51:48.129Z,102617.92
2018-02-27T06:54:14.654Z,102614.48
2018-02-27T06:56:40.844Z,102611.01
2018-02-27T06:59:07.065Z,102607.09
2018-02-27T07:01:33.305Z,102609.74
2018-02-27T07:03:59.509Z,102611.49
2018-02-27T07:06:25.980Z,102607.97
2018-02-27T07:08:52.168Z,102608.44
2018-02-27T07:11:18.606Z,102606.21
2018-02-27T07:13:44.816Z,102609.32
2018-02-27T07:16:10.994Z,102597.59
2018-02-27T07:18:37.207Z,102600.19
2018-02-27T07:21:03.405Z,102601.16
2018-02-27T07:23:29.630Z,102602.49
2018-02-27T07:25:55.833Z,102600.24
2018-02-27T07:28:22.128Z,102600.69
2018-02-27T07:30:48.419Z,102598.55
2018-02-27T07:33:14.660Z,102600.72
2018-02-27T07:35:40.850Z,102605.90
2018-02-27T07:38:07.029Z,102602.33
2018-02-27T07:40:33.244Z,102604.42
2018-02-27T07:42:59.449Z,102600.05
2018-02-27T07:45:25.654Z,102605.70
2018-02-27T07:47:51.937Z,102603.13
2018-02-27T07:50:18.131Z,102606.61
2018-02-27T07:52:44.528Z,102589.12
2018-02-27T07:55:10.729Z,102597.05
2018-02-27T07:57:36.903Z,102595.32
2018-02-27T08:00:03.148Z,102598.41
2018-02-27T08:02:29.322Z,102600.13
2018-02-27T08:04:55.627Z,102601.00
2018-02-27T08:07:22.095Z,102594.03
2018-02-27T08:09:48.278Z,102597.97
2018-02-27T08:12:14.466Z,102595.37
2018-02-27T08:14:40.648Z,102603.23
2018-02-27T08:17:06.880Z,102598.44
2018-02-27T08:19:33.297Z,102596.66
2018-02-27T08:21:59.492Z,102602.80
2018-02-27T08:24:26.022Z,102597.09
2018-02-27T08:26:52.182Z,102596.21
2018-02-27T08:29:18.426Z,102595.34
2018-02-27T08:31:44.904Z,102593.63
2018-02-27T08:34:11.435Z,102598.03
2018-02-27T08:36:37.745Z,102587.22
2018-02-27T08:39:04.010Z,102589.46
2018-02-27T08:41:30.183Z,102592.16
2018-02-27T08:43:56.426Z,102590.03
2018-02-27T08:46:22.586Z,102597.94
2018-02-27T08:48:48.785Z,102592.78
2018-02-27T08:51:15.252Z,102587.98
2018-02-27T08:53:41.447Z,102584.97
2018-02-27T08:56:07.719Z,102581.92
2018-02-27T08:58:33.896Z,102580.62
2018-02-27T09:01:00.091Z,102578.00
2018-02-27T09:03:26.579Z,102572.34
2018-02-27T09:05:52.780Z,102576.29
2018-02-27T09:08:18.973Z,102573.22
2018-02-27T09:10:45.248Z,102574.11
2018-02-27T09:13:11.421Z,102570.21
2018-02-27T09:15:37.608Z,102560.16
2018-02-27T09:18:03.829Z,102559.28
2018-02-27T09:20:30.042Z,102555.81
2018-02-27T09:22:56.265Z,102558.89
2018-02-27T09:25:22.424Z,102551.95
2018-02-27T09:27:48.609Z,102556.75
2018-02-27T09:30:14.891Z,102544.97
2018-02-27T09:32:41.076Z,102544.98
2018-02-27T09:35:07.250Z,102545.00
2018-02-27T09:37:33.516Z,102544.20
2018-02-27T09:39:59.712Z,102541.56
2018-02-27T09:42:25.888Z,102544.22
2018-02-27T09:44:52.052Z,102538.59
2018-02-27T09:47:18.266Z,102540.36
2018-02-27T09:49:44.691Z,102535.59
2018-02-27T09:52:10.942Z,102534.70
2018-02-27T09:54:37.224Z,102533.33
2018-02-27T09:57:03.424Z,102531.10
2018-02-27T09:59:29.721Z,102524.98
2018-02-27T10:01:55.876Z,102523.67
2018-02-27T10:04:22.062Z,102532.43
2018-02-27T10:06:48.525Z,102525.01
2018-02-27T10:09:14.711Z,102526.33
2018-02-27T10:11:40.892Z,102518.44
2018-02-27T10:14:07.112Z,102523.25
2018-02-27T10:16:33.342Z,102523.25
2018-02-27T10:18:59.510Z,102522.79
2018-02-27T10:21:25.820Z,102525.42
2018-02-27T10:23:52.252Z,102521.50
2018-02-27T10:26:18.431Z,102519.77
2018-02-27T10:28:44.654Z,102514.96
2018-02-27T10:31:10.849Z,102514.07
2018-02-27T10:33:37.273Z,102518.83
2018-02-27T10:36:03.510Z,102519.25
2018-02-27T10:38:29.774Z,102517.89
2018-02-27T10:40:56.066Z,102517.44
2018-02-27T10:43:22.243Z,102517.41
2018-02-27T10:45:48.528Z,102514.31
2018-02-27T10:48:15.003Z,102519.09
2018-02-27T10:50:41.173Z,102513.84
2018-02-27T10:53:07.395Z,102514.29
2018-02-27T10:55:33.592Z,102509.45
2018-02-27T10:57:59.759Z,102509.90
2018-02-27T11:03:27.263Z,102507.27
2018-02-27T11:05:53.464Z,102513.77
2018-02-27T11:08:19.640Z,102508.48
2018-02-27T11:10:45.846Z,102507.62
2018-02-27T11:13:12.027Z,102503.69
2018-02-27T11:15:38.337Z,102506.77
2018-02-27T11:18:04.536Z,102495.77
2018-02-27T11:20:30.764Z,102503.69
2018-02-27T11:22:57.076Z,102502.84
2018-02-27T11:25:23.550Z,102496.77
2018-02-27T11:27:50.501Z,102498.56
2018-02-27T11:30:17.167Z,102487.66
2018-02-27T11:32:43.347Z,102490.36
2018-02-27T11:35:09.788Z,102486.02
2018-02-27T11:37:35.969Z,102485.20
2018-02-27T11:40:02.714Z,102485.25
2018-02-27T11:42:29.150Z,102480.95
2018-02-27T11:44:55.376Z,102483.56
2018-02-27T11:47:21.596Z,102496.69
2018-02-27T11:49:47.813Z,102478.80
2018-02-27T11:52:13.980Z,102476.18
2018-02-27T11:54:40.147Z,102472.70
2018-02-27T11:57:06.379Z,102472.69
2018-02-27T11:59:32.538Z,102468.75
2018-02-27T12:01:58.765Z,102470.09
2018-02-27T12:04:24.933Z,102461.80
2018-02-27T12:06:51.095Z,102459.62
2018-02-27T12:09:17.296Z,102458.75
2018-02-27T12:11:43.531Z,102452.66
2018-02-27T12:14:09.751Z,102443.05
2018-02-27T12:16:36.162Z,102450.47
2018-02-27T12:19:02.447Z,102437.78
2018-02-27T12:21:28.862Z,102433.87
2018-02-27T12:23:55.076Z,102438.66
2018-02-27T12:26:21.231Z,102426.42
2018-02-27T12:28:47.383Z,102438.23
2018-02-27T12:31:13.698Z,102434.31
2018-02-27T12:33:39.886Z,102429.93
2018-02-27T12:36:06.058Z,102426.88
2018-02-27T12:38:32.258Z,102421.19
2018-02-27T12:40:58.467Z,102422.06
2018-02-27T12:43:24.676Z,102420.34
2018-02-27T12:45:50.854Z,102413.77
2018-02-27T12:48:17.075Z,102415.52
2018-02-27T12:50:43.239Z,102417.28
2018-02-27T12:53:09.483Z,102410.27
2018-02-27T12:55:35.676Z,102411.57
2018-02-27T12:58:01.835Z,102413.30
2018-02-27T13:00:28.020Z,102412.00
2018-02-27T13:02:54.194Z,102411.15
2018-02-27T13:05:20.402Z,102408.53
2018-02-27T13:07:46.570Z,102397.13
2018-02-27T13:10:12.769Z,102403.69
2018-02-27T13:12:38.930Z,102399.31
2018-02-27T13:15:05.108Z,102394.06
2018-02-27T13:17:31.576Z,102389.25
2018-02-27T13:19:57.801Z,102391.86
2018-02-27T13:22:24.240Z,102392.29
2018-02-27T13:24:50.415Z,102391.88
2018-02-27T13:27:16.727Z,102394.06
2018-02-27T13:29:42.921Z,102388.80
2018-02-27T13:32:09.361Z,102388.80
2018-02-27T13:34:35.642Z,102385.30
2018-02-27T13:37:01.824Z,102379.18
2018-02-27T13:39:28.000Z,102380.48
2018-02-27T13:41:54.261Z,102389.69
2018-02-27T13:44:20.422Z,102373.05
2018-02-27T13:46:46.833Z,102375.69
2018-02-27T13:49:13.397Z,102380.49
2018-02-27T13:51:39.572Z,102381.81
2018-02-27T13:54:05.782Z,102373.95
2018-02-27T13:56:31.957Z,102366.04
2018-02-27T13:58:58.815Z,102371.73
2018-02-27T14:01:25.331Z,102370.44
2018-02-27T14:03:51.508Z,102368.67
2018-02-27T14:06:17.953Z,102367.80
2018-02-27T14:08:44.385Z,102361.23
2018-02-27T14:11:10.854Z,102361.66
2018-02-27T14:13:37.027Z,102358.19
2018-02-27T14:16:03.221Z,102361.66
2018-02-27T14:18:29.424Z,102362.97
2018-02-27T14:20:55.611Z,102359.92
2018-02-27T14:23:21.771Z,102359.05
2018-02-27T14:25:47.985Z,102354.68
2018-02-27T14:28:14.177Z,102349.42
2018-02-27T14:30:40.349Z,102356.86
2018-02-27T14:33:06.583Z,102354.23
2018-02-27T14:35:32.731Z,102355.56
2018-02-27T14:37:58.954Z,102345.06
2018-02-27T14:40:25.138Z,102343.75
2018-02-27T14:42:51.292Z,102339.38
2018-02-27T14:45:17.493Z,102334.56
2018-02-27T14:47:43.924Z,102344.63
2018-02-27T14:50:10.402Z,102333.70
2018-02-27T14:52:36.584Z,102338.05
2018-02-27T14:55:02.802Z,102338.50
2018-02-27T14:57:28.971Z,102336.30
2018-02-27T14:59:55.176Z,102341.53
2018-02-27T15:02:21.643Z,102330.97
2018-02-27T15:04:47.859Z,102341.46
2018-02-27T15:07:14.284Z,102340.57
2018-02-27T15:09:40.507Z,102345.80
2018-02-27T15:12:06.782Z,102349.73
2018-02-27T15:14:32.959Z,102351.02
2018-02-27T15:16:59.172Z,102352.75
2018-02-27T15:19:25.376Z,102354.03
2018-02-27T15:21:51.537Z,102354.88
2018-02-27T15:24:17.731Z,102353.56
2018-02-27T15:26:43.883Z,102353.11
2018-02-27T15:29:10.144Z,102357.50
2018-02-27T15:31:36.308Z,102354.45
2018-02-27T15:34:02.497Z,102348.31
2018-02-27T15:36:28.720Z,102338.73
2018-02-27T15:38:55.211Z,102341.77
2018-02-27T15:41:21.446Z,102341.78
2018-02-27T15:43:47.623Z,102339.61
2018-02-27T15:46:13.789Z,102333.05
2018-02-27T15:48:39.967Z,102340.91
2018-02-27T15:51:06.139Z,102341.79
2018-02-27T15:53:32.340Z,102343.99
2018-02-27T15:55:58.786Z,102343.09
2018-02-27T15:58:25.011Z,102342.23
2018-02-27T16:00:51.178Z,102343.08
2018-02-27T16:03:17.350Z,102341.34
2018-02-27T16:05:43.557Z,102344.40
2018-02-27T16:08:09.720Z,102352.22
2018-02-27T16:10:35.878Z,102347.85
2018-02-27T16:13:02.071Z,102344.81
2018-02-27T16:15:28.256Z,102348.30
2018-02-27T16:17:54.487Z,102352.65
2018-02-27T16:20:20.666Z,102342.16
2018-02-27T16:22:46.817Z,102351.77
2018-02-27T16:25:13.028Z,102349.59
2018-02-27T16:27:39.198Z,102353.08
2018-02-27T16:30:05.360Z,102352.20
2018-02-27T16:32:31.625Z,102355.70
2018-02-27T16:34:57.819Z,102353.92
2018-02-27T16:37:24.032Z,102354.78
2018-02-27T16:39:50.252Z,102352.11
2018-02-27T16:42:16.472Z,102360.39
2018-02-27T16:44:42.637Z,102358.24
2018-02-27T16:47:09.248Z,102360.84
2018-02-27T16:49:35.442Z,102354.73
2018-02-27T16:52:01.619Z,102361.25
2018-02-27T16:54:28.839Z,102370.39
2018-02-27T16:56:55.403Z,102373.44
2018-02-27T16:59:21.721Z,102365.13
2018-02-27T17:01:47.942Z,102374.27
2018-02-27T17:04:14.387Z,102377.70
2018-02-27T17:06:40.532Z,102379.53
2018-02-27T17:09:06.751Z,102379.19
2018-02-27T17:11:32.927Z,102385.77
2018-02-27T17:13:59.177Z,102381.36
2018-02-27T17:16:25.328Z,102389.63
2018-02-27T17:18:51.514Z,102388.30
2018-02-27T17:21:17.998Z,102390.44
2018-02-27T17:23:44.182Z,102388.67
2018-02-27T17:26:10.354Z,102396.13
2018-02-27T17:28:36.601Z,102397.00
2018-02-27T17:31:03.021Z,102396.59
2018-02-27T17:33:29.249Z,102391.34
2018-02-27T17:35:55.807Z,102401.39
2018-02-27T17:38:22.036Z,102404.02
2018-02-27T17:40:48.204Z,102396.20
2018-02-27T17:43:14.748Z,102392.72
2018-02-27T17:45:41.052Z,102397.92
2018-02-27T17:48:07.304Z,102396.62
2018-02-27T17:50:33.527Z,102395.75
2018-02-27T17:52:59.752Z,102400.98
2018-02-27T17:55:26.168Z,102395.33
2018-02-27T17:57:52.361Z,102402.29
2018-02-27T18:00:18.539Z,102398.38
2018-02-27T18:02:44.724Z,102401.88
2018-02-27T18:05:10.897Z,102404.51
2018-02-27T18:07:37.336Z,102400.55
2018-02-27T18:10:03.525Z,102401.38
2018-02-27T18:12:29.694Z,102398.33
2018-02-27T18:14:55.911Z,102399.66
2018-02-27T18:17:22.088Z,102398.30
2018-02-27T18:19:48.579Z,102398.75
2018-02-27T18:22:14.801Z,102408.36
2018-02-27T18:24:40.960Z,102406.17
2018-02-27T18:27:07.128Z,102404.41
2018-02-27T18:29:33.560Z,102407.03
2018-02-27T18:32:00.132Z,102400.48
2018-02-27T18:34:26.297Z,102408.34
2018-02-27T18:36:52.788Z,102407.45
2018-02-27T18:39:19.074Z,102400.95
2018-02-27T18:41:45.256Z,102421.47
2018-02-27T18:44:11.501Z,102410.55
2018-02-27T18:46:37.676Z,102428.49
2018-02-27T18:49:03.860Z,102425.45
2018-02-27T18:51:30.063Z,102431.98
2018-02-27T18:53:56.488Z,102437.22
2018-02-27T18:56:22.718Z,102439.81
2018-02-27T18:58:49.147Z,102448.96
2018-02-27T19:01:15.280Z,102441.92
2018-02-27T19:03:41.813Z,102456.76
2018-02-27T19:06:07.968Z,102454.20
2018-02-27T19:08:34.474Z,102464.66
2018-02-27T19:11:00.709Z,102462.92
2018-02-27T19:13:26.917Z,102473.84
2018-02-27T19:15:53.467Z,102470.31
2018-02-27T19:18:20.004Z,102472.93
2018-02-27T19:20:46.223Z,102480.33
2018-02-27T19:23:12.402Z,102486.85
2018-02-27T19:25:38.555Z,102496.93
2018-02-27T19:28:04.752Z,102498.27
2018-02-27T19:30:30.941Z,102499.14
2018-02-27T19:32:57.134Z,102499.98
2018-02-27T19:35:23.378Z,102509.98
2018-02-27T19:37:49.595Z,102514.30
2018-02-27T19:40:15.775Z,102516.88
2018-02-27T19:42:42.005Z,102529.05
2018-02-27T19:45:08.510Z,102529.49
2018-02-27T19:47:34.674Z,102536.02
2018-02-27T19:50:00.887Z,102532.52
2018-02-27T19:52:27.046Z,102531.66
2018-02-27T19:54:53.201Z,102543.88
2018-02-27T19:57:26.299Z,102545.68
2018-02-27T19:59:52.471Z,102554.50
2018-02-27T20:02:18.647Z,102551.88
2018-02-27T20:04:45.093Z,102562.25
2018-02-27T20:07:11.255Z,102563.06
2018-02-27T20:09:37.432Z,102576.62
2018-02-27T20:12:03.645Z,102578.38
2018-02-27T20:14:30.872Z,102587.20
2018-02-27T20:16:57.128Z,102584.14
2018-02-27T20:19:23.293Z,102584.17
2018-02-27T20:21:49.486Z,102588.52
2018-02-27T20:24:16.750Z,102596.73
2018-02-27T20:26:42.962Z,102592.81
2018-02-27T20:29:15.171Z,102603.64
2018-02-27T20:31:41.694Z,102599.63
2018-02-27T20:34:07.862Z,102599.59
2018-02-27T20:36:34.138Z,102604.41
2018-02-27T20:39:06.286Z,102613.14
2018-02-27T20:41:32.509Z,102613.56
2018-02-27T20:43:58.978Z,102614.89
2018-02-27T20:46:25.127Z,102617.14
2018-02-27T20:48:51.311Z,102622.45
2018-02-27T20:51:17.738Z,102627.66
2018-02-27T20:53:43.954Z,102628.08
2018-02-27T20:56:10.184Z,102629.81
2018-02-27T20:58:36.388Z,102641.62
2018-02-27T21:01:02.575Z,102650.33
2018-02-27T21:03:29.007Z,102644.66
2018-02-27T21:05:55.158Z,102649.45
2018-02-27T21:08:21.332Z,102652.03
2018-02-27T21:10:47.490Z,102652.07
2018-02-27T21:13:13.725Z,102655.51
2018-02-27T21:15:39.890Z,102655.42
2018-02-27T21:18:06.067Z,102655.36
2018-02-27T21:20:32.281Z,102661.44
2018-02-27T21:22:58.432Z,102668.45
2018-02-27T21:25:24.608Z,102669.38
2018-02-27T21:27:50.814Z,102676.72
2018-02-27T21:30:16.977Z,102675.80
2018-02-27T21:32:43.228Z,102678.82
2018-02-27T21:35:09.380Z,102678.82
2018-02-27T21:37:35.544Z,102677.08
2018-02-27T21:40:01.765Z,102681.00
2018-02-27T21:42:28.012Z,102684.53
2018-02-27T21:44:54.188Z,102684.97
2018-02-27T21:47:20.347Z,102685.41
2018-02-27T21:49:46.547Z,102681.91
2018-02-27T21:52:12.720Z,102678.45
2018-02-27T21:54:38.955Z,102680.16
2018-02-27T21:57:05.127Z,102673.59
2018-02-27T21:59:31.312Z,102681.48
2018-02-27T22:01:57.516Z,102686.30
2018-02-27T22:04:23.693Z,102684.99
2018-02-27T22:06:49.848Z,102684.10
2018-02-27T22:09:16.067Z,102683.20
2018-02-27T22:11:42.215Z,102678.35
2018-02-27T22:14:08.377Z,102684.88
2018-02-27T22:16:34.565Z,102688.94
2018-02-27T22:19:00.717Z,102685.95
2018-02-27T22:21:26.935Z,102690.77
2018-02-27T22:23:53.136Z,102694.22
2018-02-27T22:26:19.297Z,102693.84
2018-02-27T22:28:45.493Z,102696.19
2018-02-27T22:31:11.641Z,102687.42
2018-02-27T22:33:37.831Z,102691.70
2018-02-27T22:36:04.246Z,102695.15
2018-02-27T22:38:30.470Z,102697.39
2018-02-27T22:40:56.637Z,102692.06
2018-02-27T22:43:22.852Z,102695.08
2018-02-27T22:45:49.020Z,102699.85
2018-02-27T22:48:21.255Z,102693.27
2018-02-27T22:50:47.428Z,102699.41
2018-02-27T22:53:13.642Z,102705.05
2018-02-27T22:55:39.799Z,102710.75
2018-02-27T22:58:05.958Z,102705.91
2018-02-27T23:00:36.261Z,102704.56
2018-02-27T23:03:02.410Z,102708.91
2018-02-27T23:05:28.608Z,102711.11
2018-02-27T23:07:55.019Z,102718.50
2018-02-27T23:10:21.194Z,102712.34
2018-02-27T23:12:47.393Z,102720.30
2018-02-27T23:15:13.561Z,102715.88
2018-02-27T23:17:39.757Z,102716.25
2018-02-27T23:20:06.283Z,102708.33
2018-02-27T23:22:32.719Z,102710.10
2018-02-27T23:27:59.479Z,102713.16
2018-02-27T23:30:26.237Z,102712.28
2018-02-27T23:32:53.479Z,102717.58
2018-02-27T23:35:24.264Z,102714.56
2018-02-27T23:37:50.665Z,102716.22
2018-02-27T23:40:16.847Z,102722.91
2018-02-27T23:42:43.027Z,102727.66
2018-02-27T23:45:09.190Z,102720.70
2018-02-27T23:47:35.401Z,102716.33
2018-02-27T23:50:01.572Z,102724.63
2018-02-27T23:52:27.724Z,102726.39
2018-02-27T23:54:54.292Z,102732.49
2018-02-27T23:57:20.459Z,102731.06
2018-02-27T23:59:46.669Z,102744.22
